Time;durP1;ratioP1;P1;durP2;ratioP2;P2;SDS_P1;SDS_P2;PMS_P1;PMS_P2;Temp;Humidity;BMP_temperature;BMP_pressure;BME280_temperature;BME280_humidity;BME280_pressure;Samples;Min_cycle;Max_cycle;Signal;HPM_P1;HPM_P2
2023/08/08 00:00:46;;;;;;;;;;;;;;;15.79;100.00;101529.94;5073975;28;19920;-71
2023/08/08 00:03:11;;;;;;;;;;;;;;;15.74;100.00;101522.31;5074392;28;19942;-71
2023/08/08 00:05:36;;;;;;;;;;;;;;;15.71;100.00;101524.50;5092167;28;19920;-71
2023/08/08 00:08:01;;;;;;;;;;;;;;;15.65;100.00;101534.00;5092318;28;20017;-71
2023/08/08 00:10:27;;;;;;;;;;;;;;;15.64;100.00;101529.63;5092219;28;19970;-71
2023/08/08 00:12:52;;;;;;;;;;;;;;;15.64;100.00;101519.72;5091670;28;19962;-71
2023/08/08 00:15:17;;;;;;;;;;;;;;;15.62;100.00;101521.72;5092117;28;19947;-71
2023/08/08 00:17:43;;;;;;;;;;;;;;;15.58;100.00;101525.72;5092153;28;19950;-71
2023/08/08 00:20:08;;;;;;;;;;;;;;;15.53;100.00;101528.03;5076418;28;19927;-71
2023/08/08 00:22:33;;;;;;;;;;;;;;;15.49;100.00;101529.34;5078297;28;19924;-71
2023/08/08 00:24:59;;;;;;;;;;;;;;;15.46;100.00;101530.47;5096102;28;19920;-70
2023/08/08 00:27:24;;;;;;;;;;;;;;;15.44;100.00;101529.78;5078310;28;19931;-71
2023/08/08 00:29:50;;;;;;;;;;;;;;;15.42;100.00;101528.25;5095995;28;20272;-71
2023/08/08 00:32:16;;;;;;;;;;;;;;;15.40;100.00;101523.06;5096109;28;20291;-71
2023/08/08 00:34:41;;;;;;;;;;;;;;;15.40;100.00;101524.91;5096203;28;19916;-72
2023/08/08 00:37:06;;;;;;;;;;;;;;;15.38;100.00;101519.69;5096241;28;20364;-71
2023/08/08 00:39:31;;;;;;;;;;;;;;;15.37;100.00;101523.34;5077983;28;19920;-71
2023/08/08 00:41:57;;;;;;;;;;;;;;;15.35;100.00;101520.00;5095593;28;19920;-71
2023/08/08 00:44:22;;;;;;;;;;;;;;;15.33;100.00;101525.53;5095947;28;20260;-71
2023/08/08 00:46:47;;;;;;;;;;;;;;;15.27;100.00;101518.09;5095368;28;20283;-71
2023/08/08 00:49:13;;;;;;;;;;;;;;;15.24;100.00;101525.59;5095500;28;19916;-71
2023/08/08 00:51:38;;;;;;;;;;;;;;;15.21;100.00;101517.84;5095723;28;19926;-71
2023/08/08 00:54:04;;;;;;;;;;;;;;;15.20;100.00;101516.16;5094964;28;19975;-71
2023/08/08 00:56:29;;;;;;;;;;;;;;;15.22;100.00;101516.88;5095653;28;19923;-71
2023/08/08 00:58:54;;;;;;;;;;;;;;;15.21;100.00;101516.03;5095293;28;19916;-71
2023/08/08 01:01:20;;;;;;;;;;;;;;;15.25;100.00;101516.56;5077234;28;20286;-71
2023/08/08 01:03:45;;;;;;;;;;;;;;;15.27;100.00;101514.56;5094862;28;19922;-71
2023/08/08 01:06:22;;;;;;;;;;;;;;;15.26;100.00;101516.41;5095653;28;19932;-71
2023/08/08 01:08:55;;;;;;;;;;;;;;;15.27;100.00;101514.56;5095267;28;19920;-71
2023/08/08 01:11:20;;;;;;;;;;;;;;;15.27;100.00;101515.41;5095587;28;19916;-71
2023/08/08 01:13:46;;;;;;;;;;;;;;;15.26;100.00;101512.88;5095324;28;20114;-71
2023/08/08 01:16:12;;;;;;;;;;;;;;;15.26;100.00;101516.41;5095674;28;20260;-71
2023/08/08 01:18:38;;;;;;;;;;;;;;;15.24;100.00;101521.09;5095793;28;19966;-71
2023/08/08 01:21:03;;;;;;;;;;;;;;;15.28;100.00;101513.56;5096090;28;19920;-71
2023/08/08 01:23:33;;;;;;;;;;;;;;;15.26;100.00;101513.72;5095006;28;20292;-72
2023/08/08 01:25:59;;;;;;;;;;;;;;;15.29;100.00;101513.41;5094821;28;19916;-71
2023/08/08 01:28:24;;;;;;;;;;;;;;;15.29;100.00;101510.72;5095040;28;20014;-70
2023/08/08 01:30:50;;;;;;;;;;;;;;;15.25;100.00;101506.66;5093392;28;20378;-71
2023/08/08 01:33:15;;;;;;;;;;;;;;;15.21;100.00;101499.94;5095008;28;19927;-71
2023/08/08 01:35:43;;;;;;;;;;;;;;;15.16;100.00;101502.22;5094726;28;20320;-71
2023/08/08 01:38:11;;;;;;;;;;;;;;;15.16;100.00;101503.06;5076368;28;20361;-71
2023/08/08 01:40:38;;;;;;;;;;;;;;;15.19;100.00;101511.81;5094710;28;19916;-71
2023/08/08 01:43:04;;;;;;;;;;;;;;;15.19;100.00;101504.59;5094147;28;19916;-71
2023/08/08 01:45:29;;;;;;;;;;;;;;;15.15;100.00;101500.53;5094429;28;20271;-71
2023/08/08 01:47:54;;;;;;;;;;;;;;;15.05;100.00;101500.63;5094676;28;20006;-71
2023/08/08 01:50:21;;;;;;;;;;;;;;;15.01;100.00;101501.09;5094306;28;20417;-71
2023/08/08 01:52:46;;;;;;;;;;;;;;;15.01;100.00;101503.75;5076317;28;19974;-71
2023/08/08 01:55:11;;;;;;;;;;;;;;;14.97;100.00;101497.84;5094026;28;19916;-70
2023/08/08 01:57:37;;;;;;;;;;;;;;;14.97;100.00;101488.00;5076366;28;19924;-70
2023/08/08 02:00:04;;;;;;;;;;;;;;;14.99;100.00;101490.50;5094087;28;19999;-71
2023/08/08 02:02:29;;;;;;;;;;;;;;;15.02;100.00;101482.16;5094274;28;20012;-70
2023/08/08 02:04:54;;;;;;;;;;;;;;;15.06;100.00;101494.28;5093882;28;20360;-70
2023/08/08 02:07:20;;;;;;;;;;;;;;;15.07;100.00;101481.72;5094458;28;19920;-70
2023/08/08 02:09:46;;;;;;;;;;;;;;;15.04;100.00;101484.69;5094137;28;20007;-69
2023/08/08 02:12:11;;;;;;;;;;;;;;;15.01;100.00;101482.31;5093445;28;20244;-70
2023/08/08 02:14:36;;;;;;;;;;;;;;;14.96;100.00;101480.09;5094173;28;19970;-70
2023/08/08 02:17:02;;;;;;;;;;;;;;;14.95;100.00;101483.78;5093409;28;20263;-70
2023/08/08 02:19:27;;;;;;;;;;;;;;;14.95;100.00;101473.88;5075947;28;19970;-70
2023/08/08 02:21:52;;;;;;;;;;;;;;;14.97;100.00;101471.91;5093632;28;19916;-73
2023/08/08 02:24:18;;;;;;;;;;;;;;;15.01;100.00;101479.66;5093735;28;19924;-70
2023/08/08 02:26:43;;;;;;;;;;;;;;;15.02;100.00;101484.00;5093829;28;19912;-70
2023/08/08 02:29:08;;;;;;;;;;;;;;;15.03;100.00;101481.16;5093399;28;19920;-70
2023/08/08 02:31:33;;;;;;;;;;;;;;;15.05;100.00;101483.69;5093422;28;19926;-70
2023/08/08 02:33:58;;;;;;;;;;;;;;;15.05;100.00;101486.34;5093221;28;19920;-71
2023/08/08 02:36:24;;;;;;;;;;;;;;;15.07;100.00;101479.03;5093685;28;19924;-70
2023/08/08 02:38:53;;;;;;;;;;;;;;;15.03;100.00;101477.66;5075537;28;19927;-70
2023/08/08 02:41:18;;;;;;;;;;;;;;;14.98;100.00;101478.09;5093114;28;19921;-70
2023/08/08 02:43:43;;;;;;;;;;;;;;;14.92;100.00;101476.88;5093189;28;19942;-70
2023/08/08 02:46:08;;;;;;;;;;;;;;;14.86;100.00;101476.66;5093083;28;19924;-70
2023/08/08 02:48:34;;;;;;;;;;;;;;;14.78;100.00;101472.06;5093194;28;19931;-70
2023/08/08 02:50:59;;;;;;;;;;;;;;;14.71;100.00;101471.81;5092632;28;19921;-70
2023/08/08 02:53:24;;;;;;;;;;;;;;;14.64;100.00;101470.72;5075068;28;19920;-70
2023/08/08 02:55:50;;;;;;;;;;;;;;;14.55;100.00;101467.06;5093336;28;20002;-70
2023/08/08 02:58:15;;;;;;;;;;;;;;;14.50;100.00;101466.69;5092579;28;20309;-70
2023/08/08 03:00:40;;;;;;;;;;;;;;;14.49;100.00;101462.31;5093303;28;19920;-70
2023/08/08 03:03:05;;;;;;;;;;;;;;;14.48;100.00;101460.66;5092701;28;19927;-70
2023/08/08 03:05:30;;;;;;;;;;;;;;;14.46;100.00;101455.44;5093330;28;19920;-70
2023/08/08 03:07:56;;;;;;;;;;;;;;;14.45;100.00;101455.56;5093123;28;20015;-70
2023/08/08 03:10:23;;;;;;;;;;;;;;;14.43;100.00;101454.88;5074281;28;21983;-70
2023/08/08 03:12:48;;;;;;;;;;;;;;;14.42;100.00;101461.22;5092832;28;19924;-70
2023/08/08 03:15:13;;;;;;;;;;;;;;;14.44;100.00;101457.41;5092670;28;20273;-70
2023/08/08 03:17:39;;;;;;;;;;;;;;;14.48;100.00;101455.28;5093115;28;19916;-70
2023/08/08 03:20:06;;;;;;;;;;;;;;;14.55;100.00;101455.53;5092608;28;19967;-70
2023/08/08 03:22:31;;;;;;;;;;;;;;;14.59;100.00;101459.59;5074963;28;19920;-70
2023/08/08 03:24:56;;;;;;;;;;;;;;;14.60;100.00;101458.56;5092963;28;20330;-70
2023/08/08 03:27:21;;;;;;;;;;;;;;;14.58;100.00;101458.72;5092455;28;19971;-70
2023/08/08 03:29:47;;;;;;;;;;;;;;;14.52;100.00;101455.81;5092813;28;19920;-70
2023/08/08 03:32:12;;;;;;;;;;;;;;;14.51;100.00;101456.81;5092480;28;19920;-70
2023/08/08 03:34:37;;;;;;;;;;;;;;;14.48;100.00;101447.25;5092774;28;19929;-69
2023/08/08 03:37:02;;;;;;;;;;;;;;;14.50;100.00;101455.97;5074426;28;19931;-72
2023/08/08 03:39:28;;;;;;;;;;;;;;;14.45;100.00;101452.88;5092548;28;19923;-71
2023/08/08 03:41:53;;;;;;;;;;;;;;;14.39;100.00;101440.97;5092829;28;20006;-70
2023/08/08 03:44:18;;;;;;;;;;;;;;;14.37;100.00;101440.25;5092308;28;19920;-71
2023/08/08 03:46:44;;;;;;;;;;;;;;;14.35;100.00;101433.38;5092680;28;19920;-71
2023/08/08 03:49:09;;;;;;;;;;;;;;;14.32;100.00;101431.84;5092267;28;19928;-71
2023/08/08 03:51:34;;;;;;;;;;;;;;;14.28;100.00;101428.59;5092539;28;20379;-69
2023/08/08 03:54:00;;;;;;;;;;;;;;;14.20;100.00;101435.72;5092980;28;20271;-71
2023/08/08 03:56:25;;;;;;;;;;;;;;;14.11;100.00;101430.25;5096436;28;19965;-70
2023/08/08 03:58:50;;;;;;;;;;;;;;;14.04;100.00;101428.31;5096711;28;20331;-71
2023/08/08 04:01:15;;;;;;;;;;;;;;;13.94;100.00;101433.69;5078129;28;19920;-71
2023/08/08 04:03:41;;;;;;;;;;;;;;;13.85;100.00;101427.41;5096602;28;19946;-71
2023/08/08 04:06:06;;;;;;;;;;;;;;;13.85;100.00;101430.09;5095879;28;19920;-73
2023/08/08 04:08:31;;;;;;;;;;;;;;;13.83;100.00;101431.22;5078687;28;19920;-71
2023/08/08 04:10:57;;;;;;;;;;;;;;;13.80;100.00;101432.34;5078201;28;19916;-71
2023/08/08 04:13:22;;;;;;;;;;;;;;;13.80;100.00;101435.00;5095754;28;19920;-71
2023/08/08 04:15:48;;;;;;;;;;;;;;;13.82;100.00;101432.19;5096059;28;19963;-71
2023/08/08 04:18:13;;;;;;;;;;;;;;;13.85;100.00;101432.75;5095980;28;19927;-71
2023/08/08 04:20:38;;;;;;;;;;;;;;;13.88;100.00;101431.59;5096092;28;19920;-71
2023/08/08 04:23:04;;;;;;;;;;;;;;;13.88;100.00;101431.59;5096284;28;19963;-71
2023/08/08 04:25:29;;;;;;;;;;;;;;;13.84;100.00;101433.75;5095960;28;19916;-71
2023/08/08 04:27:55;;;;;;;;;;;;;;;13.79;100.00;101433.31;5095997;28;19920;-71
2023/08/08 04:30:20;;;;;;;;;;;;;;;13.72;100.00;101433.06;5095558;28;20020;-71
2023/08/08 04:32:45;;;;;;;;;;;;;;;13.70;100.00;101436.88;5096235;28;19920;-71
2023/08/08 04:35:10;;;;;;;;;;;;;;;13.71;100.00;101436.72;5095436;28;19921;-72
2023/08/08 04:37:36;;;;;;;;;;;;;;;13.74;100.00;101438.28;5095881;28;20018;-71
2023/08/08 04:40:01;;;;;;;;;;;;;;;13.84;100.00;101440.91;5077769;28;19969;-71
2023/08/08 04:42:26;;;;;;;;;;;;;;;13.92;100.00;101443.69;5095554;28;19920;-70
2023/08/08 04:44:51;;;;;;;;;;;;;;;13.96;100.00;101445.09;5096223;28;19927;-70
2023/08/08 04:47:16;;;;;;;;;;;;;;;13.98;100.00;101444.97;5096084;28;19926;-70
2023/08/08 04:49:42;;;;;;;;;;;;;;;14.00;100.00;101440.28;5095835;28;20279;-70
2023/08/08 04:52:07;;;;;;;;;;;;;;;14.02;100.00;101441.84;5095747;28;20368;-70
2023/08/08 04:54:32;;;;;;;;;;;;;;;14.04;100.00;101447.03;5094987;28;19922;-70
2023/08/08 04:56:57;;;;;;;;;;;;;;;14.03;100.00;101450.69;5095819;28;19920;-70
2023/08/08 04:59:23;;;;;;;;;;;;;;;14.06;100.00;101442.38;5095329;28;20426;-71
2023/08/08 05:01:48;;;;;;;;;;;;;;;14.06;100.00;101450.41;5077432;28;20367;-71
2023/08/08 05:04:13;;;;;;;;;;;;;;;14.04;100.00;101455.06;5095255;28;19924;-73
2023/08/08 05:06:38;;;;;;;;;;;;;;;14.02;100.00;101449.88;5094254;28;19942;-71
2023/08/08 05:09:04;;;;;;;;;;;;;;;14.02;100.00;101457.88;5095159;28;19924;-70
2023/08/08 05:11:29;;;;;;;;;;;;;;;14.00;100.00;101456.34;5076453;28;19916;-71
2023/08/08 05:13:54;;;;;;;;;;;;;;;13.98;100.00;101453.81;5095576;28;19923;-71
2023/08/08 05:16:19;;;;;;;;;;;;;;;13.97;100.00;101445.94;5094528;28;19973;-72
2023/08/08 05:18:45;;;;;;;;;;;;;;;13.93;100.00;101443.56;5095092;28;19966;-72
2023/08/08 05:21:10;;;;;;;;;;;;;;;13.88;100.00;101448.50;5095090;28;19927;-71
2023/08/08 05:23:36;;;;;;;;;;;;;;;13.83;100.00;101453.44;5094651;28;19920;-71
2023/08/08 05:26:01;;;;;;;;;;;;;;;13.84;100.00;101451.59;5095043;28;19969;-71
2023/08/08 05:28:26;;;;;;;;;;;;;;;13.86;100.00;101446.97;5094612;28;19977;-70
2023/08/08 05:30:51;;;;;;;;;;;;;;;13.84;100.00;101455.13;5095083;28;20018;-70
2023/08/08 05:33:17;;;;;;;;;;;;;;;13.80;100.00;101445.72;5094701;28;20394;-74
2023/08/08 05:35:42;;;;;;;;;;;;;;;13.79;100.00;101451.22;5094739;28;19916;-71
2023/08/08 05:38:08;;;;;;;;;;;;;;;13.87;100.00;101449.50;5094848;28;19931;-72
2023/08/08 05:40:36;;;;;;;;;;;;;;;13.93;100.00;101448.91;5094771;28;20333;-71
2023/08/08 05:43:02;;;;;;;;;;;;;;;13.99;100.00;101455.50;5094884;28;19920;-71
2023/08/08 05:45:27;;;;;;;;;;;;;;;14.03;100.00;101453.38;5094351;28;19984;-71
2023/08/08 05:47:54;;;;;;;;;;;;;;;14.07;100.00;101458.28;5094899;28;20372;-71
2023/08/08 05:50:19;;;;;;;;;;;;;;;14.10;100.00;101457.16;5091046;28;19928;-74
2023/08/08 05:52:45;;;;;;;;;;;;;;;14.13;100.00;101456.03;5092177;28;19924;-72
2023/08/08 05:55:10;;;;;;;;;;;;;;;14.22;100.00;101466.66;5091836;28;19931;-72
2023/08/08 05:57:35;;;;;;;;;;;;;;;14.31;100.00;101456.91;5091081;28;20473;-73
2023/08/08 06:00:01;;;;;;;;;;;;;;;14.39;100.00;101461.53;5091794;28;19927;-73
2023/08/08 06:02:26;;;;;;;;;;;;;;;14.48;100.00;101463.31;5090934;28;19920;-73
2023/08/08 06:04:51;;;;;;;;;;;;;;;14.55;100.00;101464.38;5091832;28;19983;-72
2023/08/08 06:07:16;;;;;;;;;;;;;;;14.59;100.00;101463.09;5091633;28;20045;-73
2023/08/08 06:09:42;;;;;;;;;;;;;;;14.63;100.00;101463.69;5091209;28;20344;-72
2023/08/08 06:12:07;;;;;;;;;;;;;;;14.65;100.00;101463.53;5091073;28;19931;-72
2023/08/08 06:14:32;;;;;;;;;;;;;;;14.67;100.00;101462.38;5090592;28;20376;-72
2023/08/08 06:16:58;;;;;;;;;;;;;;;14.70;100.00;101467.44;5091135;28;19941;-72
2023/08/08 06:19:23;;;;;;;;;;;;;;;14.72;100.00;101468.13;5091057;28;19971;-75
2023/08/08 06:21:48;;;;;;;;;;;;;;;14.76;100.00;101464.16;5091270;28;19936;-72
2023/08/08 06:24:14;;;;;;;;;;;;;;;14.86;100.00;101468.63;5091181;28;20294;-72
2023/08/08 06:26:39;;;;;;;;;;;;;;;14.93;100.00;101473.22;5090490;28;19974;-73
2023/08/08 06:29:04;;;;;;;;;;;;;;;15.02;100.00;101468.78;5091499;28;19974;-72
2023/08/08 06:31:30;;;;;;;;;;;;;;;15.10;100.00;101473.38;5090619;28;19928;-73
2023/08/08 06:33:55;;;;;;;;;;;;;;;15.22;100.00;101474.81;5091314;28;19970;-73
2023/08/08 06:36:20;;;;;;;;;;;;;;;15.31;100.00;101473.03;5073325;28;19932;-73
2023/08/08 06:38:46;;;;;;;;;;;;;;;15.39;100.00;101475.81;5090735;28;20006;-73
2023/08/08 06:41:11;;;;;;;;;;;;;;;15.41;100.00;101470.28;5072882;28;19920;-73
2023/08/08 06:43:36;;;;;;;;;;;;;;;15.45;100.00;101466.28;5072412;28;20011;-72
2023/08/08 06:46:01;;;;;;;;;;;;;;;15.44;100.00;101476.16;5056091;28;20338;-72
2023/08/08 06:48:27;;;;;;;;;;;;;;;15.40;100.00;101457.88;5090092;28;19931;-74
2023/08/08 06:50:52;;;;;;;;;;;;;;;15.49;100.00;101471.16;5090637;28;19931;-72
2023/08/08 06:53:17;;;;;;;;;;;;;;;15.52;100.00;101467.34;5094549;28;20032;-70
2023/08/08 06:55:43;;;;;;;;;;;;;;;15.58;100.00;101458.66;5092852;28;19927;-71
2023/08/08 06:58:08;;;;;;;;;;;;;;;15.71;100.00;101458.25;5093214;28;19920;-69
2023/08/08 07:00:33;;;;;;;;;;;;;;;15.81;100.00;101459.03;5093001;28;20378;-70
2023/08/08 07:02:59;;;;;;;;;;;;;;;15.80;100.00;101462.69;5093389;28;19920;-73
2023/08/08 07:05:24;;;;;;;;;;;;;;;15.77;100.00;101465.66;5093140;28;19965;-72
2023/08/08 07:07:50;;;;;;;;;;;;;;;15.75;100.00;101458.78;5092896;28;19974;-71
2023/08/08 07:10:15;;;;;;;;;;;;;;;15.78;100.00;101463.84;5093168;28;19922;-71
2023/08/08 07:12:41;;;;;;;;;;;;;;;15.84;100.00;101464.06;5092472;28;19974;-70
2023/08/08 07:15:07;;;;;;;;;;;;;;;16.04;100.00;101469.22;5093154;28;19973;-72
2023/08/08 07:17:32;;;;;;;;;;;;;;;16.20;100.00;101469.28;5092735;28;19916;-72
2023/08/08 07:19:57;;;;;;;;;;;;;;;16.23;100.00;101478.88;5092874;28;19923;-70
2023/08/08 07:22:23;;;;;;;;;;;;;;;16.16;100.00;101473.28;5074980;28;19959;-71
2023/08/08 07:24:48;;;;;;;;;;;;;;;16.14;100.00;101478.00;5092708;28;20257;-70
2023/08/08 07:27:13;;;;;;;;;;;;;;;16.19;100.00;101469.44;5093022;28;19920;-71
2023/08/08 07:29:38;;;;;;;;;;;;;;;16.31;100.00;101460.09;5092257;28;20428;-71
2023/08/08 07:32:04;;;;;;;;;;;;;;;16.45;100.00;101464.03;5093039;28;19924;-71
2023/08/08 07:34:29;;;;;;;;;;;;;;;16.53;100.00;101461.34;5093059;28;19920;-72
2023/08/08 07:36:55;;;;;;;;;;;;;;;16.61;100.00;101457.03;5092502;28;19920;-71
2023/08/08 07:39:21;;;;;;;;;;;;;;;16.57;100.00;101459.19;5093014;28;19924;-71
2023/08/08 07:41:46;;;;;;;;;;;;;;;16.62;100.00;101459.53;5092494;28;20360;-71
2023/08/08 07:44:11;;;;;;;;;;;;;;;16.60;100.00;101452.63;5074792;28;20398;-71
2023/08/08 07:46:36;;;;;;;;;;;;;;;16.74;100.00;101458.22;5092521;28;20300;-72
2023/08/08 07:49:03;;;;;;;;;;;;;;;16.83;100.00;101452.88;5092881;28;20351;-71
2023/08/08 07:51:29;;;;;;;;;;;;;;;16.79;100.00;101449.66;5092831;28;20015;-71
2023/08/08 07:53:54;;;;;;;;;;;;;;;16.79;100.00;101455.03;5092427;28;19974;-72
2023/08/08 07:56:19;;;;;;;;;;;;;;;16.75;100.00;101459.09;5092886;28;20387;-71
2023/08/08 07:58:45;;;;;;;;;;;;;;;16.67;100.00;101453.66;5092454;28;19920;-72
2023/08/08 08:01:11;;;;;;;;;;;;;;;16.78;100.00;101452.50;5092764;28;19925;-71
2023/08/08 08:03:37;;;;;;;;;;;;;;;16.70;100.00;101459.53;5092014;28;20383;-75
2023/08/08 08:06:02;;;;;;;;;;;;;;;16.68;100.00;101469.63;5092419;28;19916;-71
2023/08/08 08:08:27;;;;;;;;;;;;;;;16.67;100.00;101462.56;5092757;28;19916;-70
2023/08/08 08:10:53;;;;;;;;;;;;;;;16.64;100.00;101464.75;5074039;28;19920;-71
2023/08/08 08:13:18;;;;;;;;;;;;;;;16.79;100.00;101462.25;5092742;28;20314;-70
2023/08/08 08:15:43;;;;;;;;;;;;;;;17.04;100.00;101455.94;5092189;28;20465;-70
2023/08/08 08:18:09;;;;;;;;;;;;;;;17.26;100.00;101459.81;5092320;28;19920;-71
2023/08/08 08:20:34;;;;;;;;;;;;;;;17.38;100.00;101459.50;5074493;28;19924;-71
2023/08/08 08:22:59;;;;;;;;;;;;;;;17.22;100.00;101455.78;5092117;28;20308;-71
2023/08/08 08:25:25;;;;;;;;;;;;;;;17.28;100.00;101456.97;5092298;28;19966;-71
2023/08/08 08:27:50;;;;;;;;;;;;;;;17.60;100.00;101458.81;5091734;28;19971;-71
2023/08/08 08:30:15;;;;;;;;;;;;;;;17.91;100.00;101452.69;5092291;28;19920;-71
2023/08/08 08:32:41;;;;;;;;;;;;;;;18.16;100.00;101466.09;5092168;28;19920;-73
2023/08/08 08:35:07;;;;;;;;;;;;;;;18.51;100.00;101458.50;5092395;28;20014;-71
2023/08/08 08:37:33;;;;;;;;;;;;;;;18.55;100.00;101469.78;5092345;28;19916;-71
2023/08/08 08:39:58;;;;;;;;;;;;;;;18.06;100.00;101460.91;5091919;28;20448;-70
2023/08/08 08:42:24;;;;;;;;;;;;;;;17.95;100.00;101459.41;5096088;28;20379;-71
2023/08/08 08:44:49;;;;;;;;;;;;;;;18.30;100.00;101467.19;5095158;28;19961;-71
2023/08/08 08:47:17;;;;;;;;;;;;;;;18.57;100.00;101465.91;5095827;28;19946;-71
2023/08/08 08:49:45;;;;;;;;;;;;;;;18.79;100.00;101463.41;5095410;28;19922;-75
2023/08/08 08:52:11;;;;;;;;;;;;;;;19.09;100.00;101475.19;5095661;28;19920;-71
2023/08/08 08:54:36;;;;;;;;;;;;;;;19.30;100.00;101471.00;5095730;28;19922;-71
2023/08/08 08:57:01;;;;;;;;;;;;;;;19.33;94.52;101481.44;5095263;28;19926;-71
2023/08/08 08:59:26;;;;;;;;;;;;;;;19.15;96.27;101476.34;5077484;28;20040;-71
2023/08/08 09:01:53;;;;;;;;;;;;;;;18.96;100.00;101469.56;5077115;28;19973;-71
2023/08/08 09:04:19;;;;;;;;;;;;;;;18.41;99.50;101488.38;5095582;28;19920;-71
2023/08/08 09:06:46;;;;;;;;;;;;;;;18.48;100.00;101477.72;5095657;28;19931;-71
2023/08/08 09:09:12;;;;;;;;;;;;;;;18.68;100.00;101470.88;5095372;28;19916;-72
2023/08/08 09:11:39;;;;;;;;;;;;;;;18.67;100.00;101484.53;5095574;28;19923;-72
2023/08/08 09:14:14;;;;;;;;;;;;;;;18.60;100.00;101488.97;5094426;28;19976;-73
2023/08/08 09:16:39;;;;;;;;;;;;;;;18.07;100.00;101484.13;5095585;28;19946;-72
2023/08/08 09:19:04;;;;;;;;;;;;;;;17.71;100.00;101489.88;5094954;28;19928;-72
2023/08/08 09:21:30;;;;;;;;;;;;;;;18.38;100.00;101493.28;5095439;28;19920;-71
2023/08/08 09:23:55;;;;;;;;;;;;;;;18.85;100.00;101487.84;5094805;28;20366;-72
2023/08/08 09:26:20;;;;;;;;;;;;;;;19.46;97.46;101487.03;5094900;28;20371;-72
2023/08/08 09:28:45;;;;;;;;;;;;;;;20.60;96.86;101488.69;5095259;28;20386;-71
2023/08/08 09:31:11;;;;;;;;;;;;;;;21.32;81.14;101481.56;5094631;28;19927;-71
2023/08/08 09:33:38;;;;;;;;;;;;;;;21.58;69.40;101485.56;5094730;28;19920;-72
2023/08/08 09:36:04;;;;;;;;;;;;;;;21.08;76.44;101486.34;5094621;28;19961;-73
2023/08/08 09:38:29;;;;;;;;;;;;;;;20.81;78.19;101476.28;5095238;28;19920;-72
2023/08/08 09:40:54;;;;;;;;;;;;;;;20.73;86.92;101478.06;5094623;28;20390;-74
2023/08/08 09:43:20;;;;;;;;;;;;;;;20.40;73.79;101491.97;5094470;28;20020;-71
2023/08/08 09:45:47;;;;;;;;;;;;;;;20.01;81.37;101500.41;5094819;28;19927;-71
2023/08/08 09:48:12;;;;;;;;;;;;;;;20.68;84.94;101480.50;5094070;28;19916;-71
2023/08/08 09:50:39;;;;;;;;;;;;;;;21.17;65.98;101494.31;5076234;28;20310;-70
2023/08/08 09:53:05;;;;;;;;;;;;;;;21.36;68.41;101488.25;5093668;28;19927;-71
2023/08/08 09:55:30;;;;;;;;;;;;;;;21.42;71.45;101487.50;5076478;28;19916;-71
2023/08/08 09:57:57;;;;;;;;;;;;;;;21.35;69.98;101507.38;5076566;28;19931;-72
2023/08/08 10:00:24;;;;;;;;;;;;;;;21.05;66.58;101485.88;5094592;28;19916;-71
2023/08/08 10:02:49;;;;;;;;;;;;;;;20.85;74.39;101491.91;5094595;28;20007;-71
2023/08/08 10:05:15;;;;;;;;;;;;;;;20.56;70.84;101493.66;5094033;28;20050;-72
2023/08/08 10:07:41;;;;;;;;;;;;;;;20.25;77.98;101483.06;5094503;28;19916;-72
2023/08/08 10:10:08;;;;;;;;;;;;;;;20.26;83.65;101499.09;5093552;28;19916;-73
2023/08/08 10:12:33;;;;;;;;;;;;;;;20.20;85.83;101493.59;5094349;28;19916;-73
2023/08/08 10:14:58;;;;;;;;;;;;;;;19.93;83.68;101492.38;5093512;28;20018;-71
2023/08/08 10:17:24;;;;;;;;;;;;;;;19.87;95.99;101488.53;5094001;28;20614;-73
2023/08/08 10:19:50;;;;;;;;;;;;;;;19.76;88.12;101481.72;5094171;28;19916;-71
2023/08/08 10:22:19;;;;;;;;;;;;;;;20.22;91.06;101505.06;5093849;28;19931;-72
2023/08/08 10:24:46;;;;;;;;;;;;;;;19.79;91.58;101499.44;5094088;28;20053;-71
2023/08/08 10:27:11;;;;;;;;;;;;;;;19.65;100.00;101487.56;5093648;28;19916;-72
2023/08/08 10:29:37;;;;;;;;;;;;;;;20.36;97.58;101487.16;5094083;28;19927;-72
2023/08/08 10:32:04;;;;;;;;;;;;;;;21.26;84.58;101477.78;5093246;28;19969;-72
2023/08/08 10:34:37;;;;;;;;;;;;;;;20.73;81.84;101477.22;5075606;28;19920;-71
2023/08/08 10:37:04;;;;;;;;;;;;;;;20.52;87.06;101480.69;5075398;28;19942;-71
2023/08/08 10:39:30;;;;;;;;;;;;;;;20.61;85.53;101476.84;5093897;28;19916;-72
2023/08/08 10:42:00;;;;;;;;;;;;;;;20.32;89.80;101484.00;5093811;28;19920;-71
2023/08/08 10:44:25;;;;;;;;;;;;;;;20.72;88.52;101479.09;5093901;28;20015;-71
2023/08/08 10:46:51;;;;;;;;;;;;;;;21.17;82.85;101486.19;5093416;28;20359;-72
2023/08/08 10:49:17;;;;;;;;;;;;;;;21.04;76.52;101487.75;5093348;28;19939;-72
2023/08/08 10:51:45;;;;;;;;;;;;;;;20.83;81.54;101472.34;5093743;28;20348;-72
2023/08/08 10:54:14;;;;;;;;;;;;;;;21.08;91.73;101485.50;5093134;28;20069;-73
2023/08/08 10:56:40;;;;;;;;;;;;;;;21.23;71.93;101485.41;5093362;28;20057;-72
2023/08/08 10:59:13;;;;;;;;;;;;;;;20.89;79.68;101482.41;5092876;28;19972;-72
2023/08/08 11:01:38;;;;;;;;;;;;;;;21.12;80.16;101492.19;5093706;28;19916;-72
2023/08/08 11:04:04;;;;;;;;;;;;;;;21.53;75.09;101496.13;5097163;28;20295;-72
2023/08/08 11:06:29;;;;;;;;;;;;;;;21.16;75.58;101481.84;5102684;28;19924;-72
2023/08/08 11:08:54;;;;;;;;;;;;;;;21.77;75.08;101475.91;5089191;28;19919;-73
2023/08/08 11:11:20;;;;;;;;;;;;;;;22.56;69.30;101481.94;5109851;28;19936;-75
2023/08/08 11:13:45;;;;;;;;;;;;;;;22.74;64.37;101492.25;5111089;28;19924;-77
2023/08/08 11:16:10;;;;;;;;;;;;;;;22.59;66.37;101487.81;5110649;28;19969;-74
2023/08/08 11:18:35;;;;;;;;;;;;;;;22.48;67.76;101489.25;5110908;28;19948;-72
2023/08/08 11:21:08;;;;;;;;;;;;;;;22.69;65.21;101485.56;5113818;28;19935;-74
2023/08/08 11:23:37;;;;;;;;;;;;;;;22.79;66.42;101482.44;5101064;28;20372;-74
2023/08/08 11:26:03;;;;;;;;;;;;;;;23.04;65.24;101485.41;5098870;28;20442;-74
2023/08/08 11:28:28;;;;;;;;;;;;;;;23.51;60.95;101477.34;5104251;28;19931;-74
2023/08/08 11:30:53;;;;;;;;;;;;;;;23.44;57.38;101494.66;5092480;28;19955;-76
2023/08/08 11:33:18;;;;;;;;;;;;;;;23.56;58.67;101482.97;5110450;28;20010;-73
2023/08/08 11:35:46;;;;;;;;;;;;;;;23.49;54.26;101497.59;5110125;28;20275;-72
2023/08/08 11:38:12;;;;;;;;;;;;;;;23.12;59.32;101473.56;5110115;28;19973;-74
2023/08/08 11:40:38;;;;;;;;;;;;;;;22.69;60.71;101482.84;5110595;28;19919;-74
2023/08/08 11:43:03;;;;;;;;;;;;;;;22.53;61.39;101488.63;5110530;28;19976;-76
2023/08/08 11:45:28;;;;;;;;;;;;;;;22.20;66.78;101475.75;5091999;28;19924;-72
2023/08/08 11:47:54;;;;;;;;;;;;;;;21.48;64.06;101484.00;5110212;28;20588;-75
2023/08/08 11:50:22;;;;;;;;;;;;;;;21.47;70.98;101495.03;5109947;28;20359;-75
2023/08/08 11:52:48;;;;;;;;;;;;;;;21.10;78.68;101486.16;5110365;28;20003;-73
2023/08/08 11:55:13;;;;;;;;;;;;;;;20.97;73.53;101484.13;5110168;28;20006;-73
2023/08/08 11:57:39;;;;;;;;;;;;;;;21.21;77.19;101487.50;5092383;28;19926;-75
2023/08/08 12:00:08;;;;;;;;;;;;;;;20.89;77.57;101490.50;5110075;28;19934;-76
2023/08/08 12:02:34;;;;;;;;;;;;;;;20.50;83.81;101489.00;5102400;28;19935;-73
2023/08/08 12:05:06;;;;;;;;;;;;;;;20.52;83.03;101486.09;5100582;28;19920;-75
2023/08/08 12:07:33;;;;;;;;;;;;;;;20.87;78.98;101489.03;5103042;28;20303;-73
2023/08/08 12:09:58;;;;;;;;;;;;;;;21.22;73.50;101479.19;5089882;28;20022;-72
2023/08/08 12:12:25;;;;;;;;;;;;;;;21.57;73.28;101473.03;5097086;28;20454;-76
2023/08/08 12:14:53;;;;;;;;;;;;;;;21.77;72.38;101478.63;5098897;28;19920;-73
2023/08/08 12:17:18;;;;;;;;;;;;;;;22.36;66.60;101477.28;5102737;28;19920;-74
2023/08/08 12:19:47;;;;;;;;;;;;;;;22.88;66.77;101483.91;5104561;28;20013;-74